sensor_id;sensor_type;location;lat;lon;timestamp;P1;durP1;ratioP1;P2;durP2;ratioP2
59846;SDS011;45728;48.788;2.302;2022-07-29T00:00:10;5.88;;;2.45;;
59846;SDS011;45728;48.788;2.302;2022-07-29T00:02:36;5.35;;;2.72;;
59846;SDS011;45728;48.788;2.302;2022-07-29T00:05:03;4.00;;;2.10;;
59846;SDS011;45728;48.788;2.302;2022-07-29T00:07:30;3.78;;;2.22;;
59846;SDS011;45728;48.788;2.302;2022-07-29T00:09:56;2.60;;;2.03;;
59846;SDS011;45728;48.788;2.302;2022-07-29T00:12:23;6.32;;;2.40;;
59846;SDS011;45728;48.788;2.302;2022-07-29T00:14:50;4.63;;;1.95;;
59846;SDS011;45728;48.788;2.302;2022-07-29T00:17:16;4.75;;;2.05;;
59846;SDS011;45728;48.788;2.302;2022-07-29T00:19:42;4.68;;;2.13;;
59846;SDS011;45728;48.788;2.302;2022-07-29T00:22:08;4.40;;;2.40;;
59846;SDS011;45728;48.788;2.302;2022-07-29T00:24:34;3.60;;;2.00;;
59846;SDS011;45728;48.788;2.302;2022-07-29T00:27:00;5.50;;;2.40;;
59846;SDS011;45728;48.788;2.302;2022-07-29T00:29:26;5.85;;;2.22;;
59846;SDS011;45728;48.788;2.302;2022-07-29T00:31:52;4.05;;;2.00;;
59846;SDS011;45728;48.788;2.302;2022-07-29T00:34:18;3.33;;;2.20;;
59846;SDS011;45728;48.788;2.302;2022-07-29T00:37:03;4.38;;;2.00;;
59846;SDS011;45728;48.788;2.302;2022-07-29T00:39:29;3.35;;;2.15;;
59846;SDS011;45728;48.788;2.302;2022-07-29T00:41:55;4.85;;;2.08;;
59846;SDS011;45728;48.788;2.302;2022-07-29T00:44:21;3.55;;;2.00;;
59846;SDS011;45728;48.788;2.302;2022-07-29T00:46:47;3.35;;;2.30;;
59846;SDS011;45728;48.788;2.302;2022-07-29T00:49:13;4.30;;;2.10;;
59846;SDS011;45728;48.788;2.302;2022-07-29T00:51:39;7.93;;;2.50;;
59846;SDS011;45728;48.788;2.302;2022-07-29T00:54:06;4.40;;;2.50;;
59846;SDS011;45728;48.788;2.302;2022-07-29T00:56:33;4.72;;;2.28;;
59846;SDS011;45728;48.788;2.302;2022-07-29T00:58:59;6.50;;;2.15;;
59846;SDS011;45728;48.788;2.302;2022-07-29T01:01:26;4.75;;;2.72;;
59846;SDS011;45728;48.788;2.302;2022-07-29T01:03:52;5.00;;;2.10;;
59846;SDS011;45728;48.788;2.302;2022-07-29T01:06:19;6.85;;;2.70;;
59846;SDS011;45728;48.788;2.302;2022-07-29T01:08:45;6.35;;;2.55;;
59846;SDS011;45728;48.788;2.302;2022-07-29T01:11:14;4.07;;;2.40;;
59846;SDS011;45728;48.788;2.302;2022-07-29T01:13:42;4.07;;;2.17;;
59846;SDS011;45728;48.788;2.302;2022-07-29T01:16:31;5.47;;;2.30;;
59846;SDS011;45728;48.788;2.302;2022-07-29T01:19:00;3.85;;;2.00;;
59846;SDS011;45728;48.788;2.302;2022-07-29T01:21:53;4.20;;;2.25;;
59846;SDS011;45728;48.788;2.302;2022-07-29T01:29:56;3.92;;;2.20;;
59846;SDS011;45728;48.788;2.302;2022-07-29T01:32:29;4.55;;;2.50;;
59846;SDS011;45728;48.788;2.302;2022-07-29T01:37:35;4.30;;;2.60;;
59846;SDS011;45728;48.788;2.302;2022-07-29T01:40:19;2.80;;;2.22;;
59846;SDS011;45728;48.788;2.302;2022-07-29T01:42:51;6.03;;;2.67;;
59846;SDS011;45728;48.788;2.302;2022-07-29T01:45:21;5.45;;;2.90;;
59846;SDS011;45728;48.788;2.302;2022-07-29T01:48:02;3.30;;;2.38;;
59846;SDS011;45728;48.788;2.302;2022-07-29T01:50:35;2.75;;;2.10;;
59846;SDS011;45728;48.788;2.302;2022-07-29T01:55:39;6.55;;;2.40;;
59846;SDS011;45728;48.788;2.302;2022-07-29T02:00:34;5.53;;;2.35;;
59846;SDS011;45728;48.788;2.302;2022-07-29T02:03:02;6.20;;;2.40;;
59846;SDS011;45728;48.788;2.302;2022-07-29T02:05:32;5.75;;;2.45;;
59846;SDS011;45728;48.788;2.302;2022-07-29T02:08:03;4.72;;;2.30;;
59846;SDS011;45728;48.788;2.302;2022-07-29T02:10:31;4.75;;;2.67;;
59846;SDS011;45728;48.788;2.302;2022-07-29T02:12:58;4.70;;;2.20;;
59846;SDS011;45728;48.788;2.302;2022-07-29T02:15:27;5.35;;;2.70;;
59846;SDS011;45728;48.788;2.302;2022-07-29T02:17:57;5.22;;;2.42;;
59846;SDS011;45728;48.788;2.302;2022-07-29T02:20:26;5.05;;;2.28;;
59846;SDS011;45728;48.788;2.302;2022-07-29T02:22:54;3.30;;;2.28;;
59846;SDS011;45728;48.788;2.302;2022-07-29T02:25:22;5.18;;;2.10;;
59846;SDS011;45728;48.788;2.302;2022-07-29T02:27:50;2.45;;;2.25;;
59846;SDS011;45728;48.788;2.302;2022-07-29T02:30:17;3.75;;;2.35;;
59846;SDS011;45728;48.788;2.302;2022-07-29T02:32:45;5.28;;;2.33;;
59846;SDS011;45728;48.788;2.302;2022-07-29T02:35:13;3.08;;;2.40;;
59846;SDS011;45728;48.788;2.302;2022-07-29T02:37:41;5.30;;;2.28;;
59846;SDS011;45728;48.788;2.302;2022-07-29T02:40:12;4.45;;;2.30;;
59846;SDS011;45728;48.788;2.302;2022-07-29T02:42:41;5.82;;;2.40;;
59846;SDS011;45728;48.788;2.302;2022-07-29T02:45:09;3.30;;;2.40;;
59846;SDS011;45728;48.788;2.302;2022-07-29T02:47:39;5.70;;;2.50;;
59846;SDS011;45728;48.788;2.302;2022-07-29T02:50:11;6.03;;;2.30;;
59846;SDS011;45728;48.788;2.302;2022-07-29T02:52:44;3.67;;;2.35;;
59846;SDS011;45728;48.788;2.302;2022-07-29T02:55:18;3.95;;;2.42;;
59846;SDS011;45728;48.788;2.302;2022-07-29T03:00:27;3.85;;;2.50;;
59846;SDS011;45728;48.788;2.302;2022-07-29T03:02:56;3.38;;;2.22;;
59846;SDS011;45728;48.788;2.302;2022-07-29T03:05:24;4.60;;;2.80;;
59846;SDS011;45728;48.788;2.302;2022-07-29T03:07:55;4.60;;;2.50;;
59846;SDS011;45728;48.788;2.302;2022-07-29T03:10:26;3.58;;;2.30;;
59846;SDS011;45728;48.788;2.302;2022-07-29T03:12:56;4.32;;;2.40;;
59846;SDS011;45728;48.788;2.302;2022-07-29T03:15:23;3.50;;;1.98;;
59846;SDS011;45728;48.788;2.302;2022-07-29T03:17:50;5.38;;;2.70;;
59846;SDS011;45728;48.788;2.302;2022-07-29T03:20:17;4.45;;;2.40;;
59846;SDS011;45728;48.788;2.302;2022-07-29T03:22:44;4.35;;;2.47;;
59846;SDS011;45728;48.788;2.302;2022-07-29T03:25:14;4.63;;;2.75;;
59846;SDS011;45728;48.788;2.302;2022-07-29T03:27:42;7.28;;;2.60;;
59846;SDS011;45728;48.788;2.302;2022-07-29T03:30:10;4.32;;;2.53;;
59846;SDS011;45728;48.788;2.302;2022-07-29T03:32:37;3.65;;;2.67;;
59846;SDS011;45728;48.788;2.302;2022-07-29T03:35:05;4.50;;;2.72;;
59846;SDS011;45728;48.788;2.302;2022-07-29T03:37:32;4.22;;;2.70;;
59846;SDS011;45728;48.788;2.302;2022-07-29T03:39:59;3.88;;;2.70;;
59846;SDS011;45728;48.788;2.302;2022-07-29T03:42:28;5.40;;;3.00;;
59846;SDS011;45728;48.788;2.302;2022-07-29T03:44:57;4.38;;;2.55;;
59846;SDS011;45728;48.788;2.302;2022-07-29T03:47:25;4.22;;;2.33;;
59846;SDS011;45728;48.788;2.302;2022-07-29T03:49:56;5.40;;;2.65;;
59846;SDS011;45728;48.788;2.302;2022-07-29T03:52:27;8.18;;;2.95;;
59846;SDS011;45728;48.788;2.302;2022-07-29T03:54:53;3.40;;;2.65;;
59846;SDS011;45728;48.788;2.302;2022-07-29T03:57:20;6.07;;;2.67;;
59846;SDS011;45728;48.788;2.302;2022-07-29T03:59:51;5.13;;;2.75;;
59846;SDS011;45728;48.788;2.302;2022-07-29T04:02:17;5.43;;;2.97;;
59846;SDS011;45728;48.788;2.302;2022-07-29T04:04:44;5.57;;;2.80;;
59846;SDS011;45728;48.788;2.302;2022-07-29T04:07:14;8.35;;;3.13;;
59846;SDS011;45728;48.788;2.302;2022-07-29T04:09:41;8.48;;;3.05;;
59846;SDS011;45728;48.788;2.302;2022-07-29T04:12:07;4.60;;;2.78;;
59846;SDS011;45728;48.788;2.302;2022-07-29T04:14:34;7.30;;;2.95;;
59846;SDS011;45728;48.788;2.302;2022-07-29T04:17:01;4.90;;;2.88;;
59846;SDS011;45728;48.788;2.302;2022-07-29T04:19:28;6.97;;;2.85;;
59846;SDS011;45728;48.788;2.302;2022-07-29T04:21:54;5.90;;;2.63;;
59846;SDS011;45728;48.788;2.302;2022-07-29T04:24:20;5.10;;;2.78;;
59846;SDS011;45728;48.788;2.302;2022-07-29T04:26:46;6.00;;;3.05;;
59846;SDS011;45728;48.788;2.302;2022-07-29T04:29:12;6.07;;;3.25;;
59846;SDS011;45728;48.788;2.302;2022-07-29T04:31:40;6.65;;;3.55;;
59846;SDS011;45728;48.788;2.302;2022-07-29T04:34:06;6.72;;;3.30;;
59846;SDS011;45728;48.788;2.302;2022-07-29T04:36:33;8.88;;;3.30;;
59846;SDS011;45728;48.788;2.302;2022-07-29T04:38:59;7.38;;;3.50;;
59846;SDS011;45728;48.788;2.302;2022-07-29T04:41:26;8.32;;;3.30;;
59846;SDS011;45728;48.788;2.302;2022-07-29T04:43:56;7.07;;;3.33;;
59846;SDS011;45728;48.788;2.302;2022-07-29T04:46:22;8.20;;;3.03;;
59846;SDS011;45728;48.788;2.302;2022-07-29T04:48:48;5.78;;;2.97;;
59846;SDS011;45728;48.788;2.302;2022-07-29T04:51:15;7.00;;;3.20;;
59846;SDS011;45728;48.788;2.302;2022-07-29T04:53:41;8.30;;;3.30;;
59846;SDS011;45728;48.788;2.302;2022-07-29T04:56:07;6.28;;;3.00;;
59846;SDS011;45728;48.788;2.302;2022-07-29T04:58:36;4.00;;;2.33;;
59846;SDS011;45728;48.788;2.302;2022-07-29T05:01:02;7.68;;;2.95;;
59846;SDS011;45728;48.788;2.302;2022-07-29T05:03:29;5.07;;;2.60;;
59846;SDS011;45728;48.788;2.302;2022-07-29T05:05:55;4.90;;;2.90;;
59846;SDS011;45728;48.788;2.302;2022-07-29T05:08:21;7.32;;;3.63;;
59846;SDS011;45728;48.788;2.302;2022-07-29T05:10:47;6.68;;;3.15;;
59846;SDS011;45728;48.788;2.302;2022-07-29T05:13:13;7.78;;;3.55;;
59846;SDS011;45728;48.788;2.302;2022-07-29T05:15:39;7.30;;;3.47;;
59846;SDS011;45728;48.788;2.302;2022-07-29T05:18:05;7.85;;;3.30;;
59846;SDS011;45728;48.788;2.302;2022-07-29T05:20:31;7.90;;;2.72;;
59846;SDS011;45728;48.788;2.302;2022-07-29T05:22:58;6.63;;;3.05;;
59846;SDS011;45728;48.788;2.302;2022-07-29T05:25:26;7.53;;;3.00;;
59846;SDS011;45728;48.788;2.302;2022-07-29T05:27:53;6.45;;;2.78;;
59846;SDS011;45728;48.788;2.302;2022-07-29T05:30:20;5.85;;;2.50;;
59846;SDS011;45728;48.788;2.302;2022-07-29T05:32:46;4.22;;;2.63;;
59846;SDS011;45728;48.788;2.302;2022-07-29T05:35:12;5.57;;;2.50;;
59846;SDS011;45728;48.788;2.302;2022-07-29T05:37:39;4.75;;;2.58;;
59846;SDS011;45728;48.788;2.302;2022-07-29T05:40:06;6.75;;;2.60;;
59846;SDS011;45728;48.788;2.302;2022-07-29T05:42:32;5.80;;;2.70;;
59846;SDS011;45728;48.788;2.302;2022-07-29T05:44:59;6.85;;;2.70;;
59846;SDS011;45728;48.788;2.302;2022-07-29T05:47:26;6.45;;;2.95;;
59846;SDS011;45728;48.788;2.302;2022-07-29T05:49:53;6.68;;;2.45;;
59846;SDS011;45728;48.788;2.302;2022-07-29T05:52:19;4.90;;;2.65;;
59846;SDS011;45728;48.788;2.302;2022-07-29T05:54:46;6.25;;;2.53;;
59846;SDS011;45728;48.788;2.302;2022-07-29T05:57:16;7.95;;;2.70;;
59846;SDS011;45728;48.788;2.302;2022-07-29T05:59:43;5.68;;;2.75;;
59846;SDS011;45728;48.788;2.302;2022-07-29T06:02:09;7.55;;;2.72;;
59846;SDS011;45728;48.788;2.302;2022-07-29T06:04:35;4.63;;;2.60;;
59846;SDS011;45728;48.788;2.302;2022-07-29T06:07:01;11.55;;;3.08;;
59846;SDS011;45728;48.788;2.302;2022-07-29T06:09:27;5.13;;;2.45;;
59846;SDS011;45728;48.788;2.302;2022-07-29T06:11:53;5.18;;;2.88;;
59846;SDS011;45728;48.788;2.302;2022-07-29T06:14:19;6.55;;;2.70;;
59846;SDS011;45728;48.788;2.302;2022-07-29T06:16:45;8.43;;;2.90;;
59846;SDS011;45728;48.788;2.302;2022-07-29T06:19:11;6.07;;;2.50;;
59846;SDS011;45728;48.788;2.302;2022-07-29T06:21:44;3.47;;;2.00;;
59846;SDS011;45728;48.788;2.302;2022-07-29T06:24:11;6.90;;;2.70;;
59846;SDS011;45728;48.788;2.302;2022-07-29T06:26:39;6.35;;;2.65;;
59846;SDS011;45728;48.788;2.302;2022-07-29T06:29:06;4.10;;;2.47;;
59846;SDS011;45728;48.788;2.302;2022-07-29T06:31:32;4.43;;;2.55;;
59846;SDS011;45728;48.788;2.302;2022-07-29T06:33:59;7.55;;;2.47;;
59846;SDS011;45728;48.788;2.302;2022-07-29T06:36:25;6.95;;;2.45;;
59846;SDS011;45728;48.788;2.302;2022-07-29T06:38:51;4.60;;;2.17;;
59846;SDS011;45728;48.788;2.302;2022-07-29T06:41:17;10.02;;;2.53;;
59846;SDS011;45728;48.788;2.302;2022-07-29T06:43:43;5.32;;;2.50;;
59846;SDS011;45728;48.788;2.302;2022-07-29T06:46:12;7.28;;;2.45;;
59846;SDS011;45728;48.788;2.302;2022-07-29T06:48:40;7.45;;;2.53;;
59846;SDS011;45728;48.788;2.302;2022-07-29T06:51:10;9.07;;;2.83;;
59846;SDS011;45728;48.788;2.302;2022-07-29T06:53:37;8.82;;;2.72;;
59846;SDS011;45728;48.788;2.302;2022-07-29T06:56:05;10.55;;;3.33;;
59846;SDS011;45728;48.788;2.302;2022-07-29T06:58:33;7.35;;;2.50;;
59846;SDS011;45728;48.788;2.302;2022-07-29T07:01:01;6.93;;;2.80;;
59846;SDS011;45728;48.788;2.302;2022-07-29T07:03:29;5.37;;;2.37;;
59846;SDS011;45728;48.788;2.302;2022-07-29T07:05:56;6.53;;;2.85;;
59846;SDS011;45728;48.788;2.302;2022-07-29T07:08:22;12.20;;;2.83;;
59846;SDS011;45728;48.788;2.302;2022-07-29T07:10:49;8.88;;;2.70;;
59846;SDS011;45728;48.788;2.302;2022-07-29T07:13:16;5.60;;;2.55;;
59846;SDS011;45728;48.788;2.302;2022-07-29T07:15:45;11.50;;;2.80;;
59846;SDS011;45728;48.788;2.302;2022-07-29T07:18:13;10.48;;;2.72;;
59846;SDS011;45728;48.788;2.302;2022-07-29T07:20:40;15.23;;;2.53;;
59846;SDS011;45728;48.788;2.302;2022-07-29T07:23:07;8.70;;;2.90;;
59846;SDS011;45728;48.788;2.302;2022-07-29T07:25:33;9.20;;;3.15;;
59846;SDS011;45728;48.788;2.302;2022-07-29T07:27:59;7.45;;;2.60;;
59846;SDS011;45728;48.788;2.302;2022-07-29T07:30:26;4.25;;;2.15;;
59846;SDS011;45728;48.788;2.302;2022-07-29T07:32:52;8.45;;;3.45;;
59846;SDS011;45728;48.788;2.302;2022-07-29T07:35:19;5.97;;;2.30;;
59846;SDS011;45728;48.788;2.302;2022-07-29T07:37:45;8.73;;;2.95;;
59846;SDS011;45728;48.788;2.302;2022-07-29T07:40:11;13.82;;;3.17;;
59846;SDS011;45728;48.788;2.302;2022-07-29T07:42:38;7.30;;;2.72;;
59846;SDS011;45728;48.788;2.302;2022-07-29T07:45:06;10.60;;;2.55;;
59846;SDS011;45728;48.788;2.302;2022-07-29T07:47:35;7.07;;;2.55;;
59846;SDS011;45728;48.788;2.302;2022-07-29T07:50:03;10.27;;;2.67;;
59846;SDS011;45728;48.788;2.302;2022-07-29T07:52:30;8.18;;;2.97;;
59846;SDS011;45728;48.788;2.302;2022-07-29T07:54:56;9.60;;;2.70;;
59846;SDS011;45728;48.788;2.302;2022-07-29T07:57:22;8.52;;;2.78;;
59846;SDS011;45728;48.788;2.302;2022-07-29T07:59:48;11.05;;;2.80;;
59846;SDS011;45728;48.788;2.302;2022-07-29T08:02:14;4.50;;;2.47;;
59846;SDS011;45728;48.788;2.302;2022-07-29T08:04:40;10.15;;;2.63;;
59846;SDS011;45728;48.788;2.302;2022-07-29T08:07:07;7.13;;;2.60;;
59846;SDS011;45728;48.788;2.302;2022-07-29T08:09:34;3.03;;;2.00;;
59846;SDS011;45728;48.788;2.302;2022-07-29T08:12:00;6.03;;;2.38;;
59846;SDS011;45728;48.788;2.302;2022-07-29T08:14:32;5.82;;;2.50;;
59846;SDS011;45728;48.788;2.302;2022-07-29T08:16:58;4.93;;;1.90;;
59846;SDS011;45728;48.788;2.302;2022-07-29T08:19:25;6.47;;;1.90;;
59846;SDS011;45728;48.788;2.302;2022-07-29T08:21:51;10.35;;;2.30;;
59846;SDS011;45728;48.788;2.302;2022-07-29T08:24:18;5.97;;;2.25;;
59846;SDS011;45728;48.788;2.302;2022-07-29T08:27:04;7.05;;;2.03;;
59846;SDS011;45728;48.788;2.302;2022-07-29T08:29:30;5.95;;;1.88;;
59846;SDS011;45728;48.788;2.302;2022-07-29T08:31:56;6.88;;;2.15;;
59846;SDS011;45728;48.788;2.302;2022-07-29T08:34:22;3.53;;;1.90;;
59846;SDS011;45728;48.788;2.302;2022-07-29T08:36:48;5.30;;;2.10;;
59846;SDS011;45728;48.788;2.302;2022-07-29T08:39:14;5.55;;;2.33;;
59846;SDS011;45728;48.788;2.302;2022-07-29T08:41:40;8.77;;;2.47;;
59846;SDS011;45728;48.788;2.302;2022-07-29T08:44:06;5.10;;;1.92;;
59846;SDS011;45728;48.788;2.302;2022-07-29T08:46:32;4.03;;;1.80;;
59846;SDS011;45728;48.788;2.302;2022-07-29T08:48:59;7.20;;;2.10;;
59846;SDS011;45728;48.788;2.302;2022-07-29T08:51:25;5.95;;;1.70;;
59846;SDS011;45728;48.788;2.302;2022-07-29T08:53:52;4.53;;;1.90;;
59846;SDS011;45728;48.788;2.302;2022-07-29T08:56:20;5.97;;;1.67;;
59846;SDS011;45728;48.788;2.302;2022-07-29T08:58:46;6.82;;;1.95;;
59846;SDS011;45728;48.788;2.302;2022-07-29T09:01:13;6.68;;;1.95;;
59846;SDS011;45728;48.788;2.302;2022-07-29T09:03:49;4.15;;;1.77;;
59846;SDS011;45728;48.788;2.302;2022-07-29T09:06:17;6.15;;;1.70;;
59846;SDS011;45728;48.788;2.302;2022-07-29T09:11:12;5.80;;;1.85;;
59846;SDS011;45728;48.788;2.302;2022-07-29T09:13:39;4.78;;;1.90;;
59846;SDS011;45728;48.788;2.302;2022-07-29T09:16:05;5.40;;;1.83;;
59846;SDS011;45728;48.788;2.302;2022-07-29T09:18:39;10.80;;;2.00;;
59846;SDS011;45728;48.788;2.302;2022-07-29T09:21:07;5.28;;;2.05;;
59846;SDS011;45728;48.788;2.302;2022-07-29T09:24:00;6.40;;;2.08;;
59846;SDS011;45728;48.788;2.302;2022-07-29T09:26:32;4.90;;;1.57;;
59846;SDS011;45728;48.788;2.302;2022-07-29T09:29:01;4.28;;;1.65;;
59846;SDS011;45728;48.788;2.302;2022-07-29T09:31:39;3.38;;;2.10;;
59846;SDS011;45728;48.788;2.302;2022-07-29T09:34:07;5.47;;;1.70;;
59846;SDS011;45728;48.788;2.302;2022-07-29T09:36:44;5.07;;;1.80;;
59846;SDS011;45728;48.788;2.302;2022-07-29T09:39:13;3.17;;;1.60;;
59846;SDS011;45728;48.788;2.302;2022-07-29T09:41:50;3.72;;;1.73;;
59846;SDS011;45728;48.788;2.302;2022-07-29T09:44:20;2.65;;;1.42;;
59846;SDS011;45728;48.788;2.302;2022-07-29T09:49:33;6.38;;;1.80;;
59846;SDS011;45728;48.788;2.302;2022-07-29T09:52:02;7.82;;;2.00;;
59846;SDS011;45728;48.788;2.302;2022-07-29T09:54:30;4.85;;;1.48;;
59846;SDS011;45728;48.788;2.302;2022-07-29T09:57:04;7.40;;;2.30;;
59846;SDS011;45728;48.788;2.302;2022-07-29T09:59:38;9.55;;;2.22;;
59846;SDS011;45728;48.788;2.302;2022-07-29T10:02:13;3.38;;;1.88;;
59846;SDS011;45728;48.788;2.302;2022-07-29T10:04:40;5.30;;;2.08;;
59846;SDS011;45728;48.788;2.302;2022-07-29T10:07:08;5.82;;;1.80;;
59846;SDS011;45728;48.788;2.302;2022-07-29T10:09:35;6.20;;;2.05;;
59846;SDS011;45728;48.788;2.302;2022-07-29T10:12:02;5.20;;;1.70;;
59846;SDS011;45728;48.788;2.302;2022-07-29T10:14:36;4.47;;;1.70;;
59846;SDS011;45728;48.788;2.302;2022-07-29T10:17:04;3.28;;;1.52;;
59846;SDS011;45728;48.788;2.302;2022-07-29T10:19:32;5.15;;;1.77;;
59846;SDS011;45728;48.788;2.302;2022-07-29T10:21:59;5.05;;;1.42;;
59846;SDS011;45728;48.788;2.302;2022-07-29T10:24:26;7.82;;;1.95;;
59846;SDS011;45728;48.788;2.302;2022-07-29T10:26:58;4.00;;;1.63;;
59846;SDS011;45728;48.788;2.302;2022-07-29T10:29:26;7.22;;;1.80;;
59846;SDS011;45728;48.788;2.302;2022-07-29T10:31:58;3.30;;;1.67;;
59846;SDS011;45728;48.788;2.302;2022-07-29T10:40:26;3.88;;;1.70;;
59846;SDS011;45728;48.788;2.302;2022-07-29T10:43:32;3.97;;;1.40;;
59846;SDS011;45728;48.788;2.302;2022-07-29T10:46:01;2.38;;;1.40;;
59846;SDS011;45728;48.788;2.302;2022-07-29T10:48:28;2.50;;;1.42;;
59846;SDS011;45728;48.788;2.302;2022-07-29T10:51:01;4.03;;;1.67;;
59846;SDS011;45728;48.788;2.302;2022-07-29T10:53:48;6.70;;;1.70;;
59846;SDS011;45728;48.788;2.302;2022-07-29T10:56:29;9.10;;;2.00;;
59846;SDS011;45728;48.788;2.302;2022-07-29T11:01:45;8.68;;;2.65;;
59846;SDS011;45728;48.788;2.302;2022-07-29T11:04:13;5.43;;;1.73;;
59846;SDS011;45728;48.788;2.302;2022-07-29T11:09:24;7.88;;;2.00;;
59846;SDS011;45728;48.788;2.302;2022-07-29T11:11:50;4.18;;;1.40;;
59846;SDS011;45728;48.788;2.302;2022-07-29T11:14:18;2.97;;;1.73;;
59846;SDS011;45728;48.788;2.302;2022-07-29T11:17:04;10.25;;;1.70;;
59846;SDS011;45728;48.788;2.302;2022-07-29T11:19:31;5.63;;;1.52;;
59846;SDS011;45728;48.788;2.302;2022-07-29T11:21:58;5.30;;;1.63;;
59846;SDS011;45728;48.788;2.302;2022-07-29T11:24:28;7.55;;;1.95;;
59846;SDS011;45728;48.788;2.302;2022-07-29T11:27:07;4.82;;;1.73;;
59846;SDS011;45728;48.788;2.302;2022-07-29T11:32:15;4.88;;;1.60;;
59846;SDS011;45728;48.788;2.302;2022-07-29T11:34:45;2.50;;;1.60;;
59846;SDS011;45728;48.788;2.302;2022-07-29T11:37:13;4.25;;;1.60;;
59846;SDS011;45728;48.788;2.302;2022-07-29T11:44:54;6.20;;;1.55;;
59846;SDS011;45728;48.788;2.302;2022-07-29T11:47:48;4.68;;;1.75;;
59846;SDS011;45728;48.788;2.302;2022-07-29T11:50:17;8.32;;;2.03;;
59846;SDS011;45728;48.788;2.302;2022-07-29T11:52:52;9.60;;;1.85;;
59846;SDS011;45728;48.788;2.302;2022-07-29T11:55:21;2.83;;;1.33;;
59846;SDS011;45728;48.788;2.302;2022-07-29T11:57:50;6.10;;;1.73;;
59846;SDS011;45728;48.788;2.302;2022-07-29T12:00:29;4.03;;;1.35;;
59846;SDS011;45728;48.788;2.302;2022-07-29T12:03:09;5.80;;;1.67;;
59846;SDS011;45728;48.788;2.302;2022-07-29T12:05:37;4.40;;;1.90;;
59846;SDS011;45728;48.788;2.302;2022-07-29T12:08:09;4.80;;;1.45;;
59846;SDS011;45728;48.788;2.302;2022-07-29T12:10:37;3.65;;;1.60;;
59846;SDS011;45728;48.788;2.302;2022-07-29T12:13:04;5.07;;;1.40;;
59846;SDS011;45728;48.788;2.302;2022-07-29T12:15:30;6.93;;;1.70;;
59846;SDS011;45728;48.788;2.302;2022-07-29T12:17:57;7.35;;;1.65;;
59846;SDS011;45728;48.788;2.302;2022-07-29T12:20:27;4.43;;;1.25;;
59846;SDS011;45728;48.788;2.302;2022-07-29T12:22:55;5.63;;;1.55;;
59846;SDS011;45728;48.788;2.302;2022-07-29T12:25:23;6.28;;;1.60;;
59846;SDS011;45728;48.788;2.302;2022-07-29T12:28:00;2.00;;;1.40;;
59846;SDS011;45728;48.788;2.302;2022-07-29T12:30:34;3.95;;;1.60;;
59846;SDS011;45728;48.788;2.302;2022-07-29T12:33:12;6.07;;;1.50;;
59846;SDS011;45728;48.788;2.302;2022-07-29T12:35:38;7.47;;;1.80;;
59846;SDS011;45728;48.788;2.302;2022-07-29T12:38:05;4.57;;;1.50;;
59846;SDS011;45728;48.788;2.302;2022-07-29T12:40:31;5.68;;;1.45;;
59846;SDS011;45728;48.788;2.302;2022-07-29T12:43:07;2.63;;;1.60;;
59846;SDS011;45728;48.788;2.302;2022-07-29T12:45:35;5.75;;;1.58;;
59846;SDS011;45728;48.788;2.302;2022-07-29T12:48:02;4.43;;;1.30;;
59846;SDS011;45728;48.788;2.302;2022-07-29T12:50:28;3.63;;;1.30;;
59846;SDS011;45728;48.788;2.302;2022-07-29T12:53:07;5.18;;;1.58;;
59846;SDS011;45728;48.788;2.302;2022-07-29T12:55:39;2.47;;;1.40;;
59846;SDS011;45728;48.788;2.302;2022-07-29T12:58:10;2.00;;;1.30;;
59846;SDS011;45728;48.788;2.302;2022-07-29T13:00:36;3.90;;;1.70;;
59846;SDS011;45728;48.788;2.302;2022-07-29T13:03:02;5.05;;;1.60;;
59846;SDS011;45728;48.788;2.302;2022-07-29T13:05:38;1.95;;;1.40;;
59846;SDS011;45728;48.788;2.302;2022-07-29T13:08:15;4.10;;;1.30;;
59846;SDS011;45728;48.788;2.302;2022-07-29T13:10:43;3.42;;;1.40;;
59846;SDS011;45728;48.788;2.302;2022-07-29T13:13:11;2.97;;;1.50;;
59846;SDS011;45728;48.788;2.302;2022-07-29T13:15:42;2.65;;;1.42;;
59846;SDS011;45728;48.788;2.302;2022-07-29T13:20:54;2.95;;;1.65;;
59846;SDS011;45728;48.788;2.302;2022-07-29T13:23:21;2.90;;;1.17;;
59846;SDS011;45728;48.788;2.302;2022-07-29T13:25:47;2.95;;;1.70;;
59846;SDS011;45728;48.788;2.302;2022-07-29T13:28:13;2.80;;;1.40;;
59846;SDS011;45728;48.788;2.302;2022-07-29T13:30:40;4.38;;;1.40;;
59846;SDS011;45728;48.788;2.302;2022-07-29T13:33:06;3.40;;;1.63;;
59846;SDS011;45728;48.788;2.302;2022-07-29T13:35:32;3.58;;;1.48;;
59846;SDS011;45728;48.788;2.302;2022-07-29T13:37:59;5.43;;;1.63;;
59846;SDS011;45728;48.788;2.302;2022-07-29T13:40:25;2.65;;;1.60;;
59846;SDS011;45728;48.788;2.302;2022-07-29T13:42:51;1.55;;;1.30;;
59846;SDS011;45728;48.788;2.302;2022-07-29T13:45:17;3.28;;;1.63;;
59846;SDS011;45728;48.788;2.302;2022-07-29T13:47:43;4.78;;;1.55;;
59846;SDS011;45728;48.788;2.302;2022-07-29T13:50:09;4.38;;;1.55;;
59846;SDS011;45728;48.788;2.302;2022-07-29T13:52:36;3.17;;;1.33;;
59846;SDS011;45728;48.788;2.302;2022-07-29T13:55:03;4.15;;;1.50;;
59846;SDS011;45728;48.788;2.302;2022-07-29T13:57:30;3.38;;;1.38;;
59846;SDS011;45728;48.788;2.302;2022-07-29T13:59:57;2.85;;;1.40;;
59846;SDS011;45728;48.788;2.302;2022-07-29T14:02:23;2.85;;;1.42;;
59846;SDS011;45728;48.788;2.302;2022-07-29T14:04:49;2.53;;;1.55;;
59846;SDS011;45728;48.788;2.302;2022-07-29T14:07:15;2.17;;;1.30;;
59846;SDS011;45728;48.788;2.302;2022-07-29T14:09:41;1.92;;;1.30;;
59846;SDS011;45728;48.788;2.302;2022-07-29T14:12:08;5.20;;;1.70;;
59846;SDS011;45728;48.788;2.302;2022-07-29T14:14:34;5.53;;;1.80;;
59846;SDS011;45728;48.788;2.302;2022-07-29T14:17:02;4.20;;;1.60;;
59846;SDS011;45728;48.788;2.302;2022-07-29T14:19:28;2.83;;;1.48;;
59846;SDS011;45728;48.788;2.302;2022-07-29T14:21:54;4.18;;;1.30;;
59846;SDS011;45728;48.788;2.302;2022-07-29T14:24:20;2.03;;;1.40;;
59846;SDS011;45728;48.788;2.302;2022-07-29T14:26:46;3.65;;;1.48;;
59846;SDS011;45728;48.788;2.302;2022-07-29T14:29:12;4.15;;;1.65;;
59846;SDS011;45728;48.788;2.302;2022-07-29T14:31:39;3.80;;;1.45;;
59846;SDS011;45728;48.788;2.302;2022-07-29T14:34:05;3.67;;;1.40;;
59846;SDS011;45728;48.788;2.302;2022-07-29T14:36:31;2.65;;;1.45;;
59846;SDS011;45728;48.788;2.302;2022-07-29T14:38:57;4.78;;;1.45;;
59846;SDS011;45728;48.788;2.302;2022-07-29T14:41:23;6.93;;;1.40;;
59846;SDS011;45728;48.788;2.302;2022-07-29T14:43:49;1.73;;;1.40;;
59846;SDS011;45728;48.788;2.302;2022-07-29T14:46:15;3.75;;;1.45;;
59846;SDS011;45728;48.788;2.302;2022-07-29T14:48:41;4.15;;;1.40;;
59846;SDS011;45728;48.788;2.302;2022-07-29T14:51:07;1.83;;;1.30;;
59846;SDS011;45728;48.788;2.302;2022-07-29T14:53:33;3.75;;;1.45;;
59846;SDS011;45728;48.788;2.302;2022-07-29T14:55:59;2.83;;;1.30;;
59846;SDS011;45728;48.788;2.302;2022-07-29T14:58:25;3.00;;;1.77;;
59846;SDS011;45728;48.788;2.302;2022-07-29T15:00:51;3.22;;;1.50;;
59846;SDS011;45728;48.788;2.302;2022-07-29T15:03:17;3.35;;;1.58;;
59846;SDS011;45728;48.788;2.302;2022-07-29T15:05:43;2.13;;;1.40;;
59846;SDS011;45728;48.788;2.302;2022-07-29T15:08:09;4.50;;;1.50;;
59846;SDS011;45728;48.788;2.302;2022-07-29T15:10:35;1.83;;;1.30;;
59846;SDS011;45728;48.788;2.302;2022-07-29T15:13:02;2.58;;;1.23;;
59846;SDS011;45728;48.788;2.302;2022-07-29T15:15:28;2.35;;;1.38;;
59846;SDS011;45728;48.788;2.302;2022-07-29T15:17:54;4.05;;;1.77;;
59846;SDS011;45728;48.788;2.302;2022-07-29T15:20:20;2.90;;;1.30;;
59846;SDS011;45728;48.788;2.302;2022-07-29T15:22:46;3.50;;;1.30;;
59846;SDS011;45728;48.788;2.302;2022-07-29T15:25:13;2.33;;;1.48;;
59846;SDS011;45728;48.788;2.302;2022-07-29T15:27:39;1.80;;;1.25;;
59846;SDS011;45728;48.788;2.302;2022-07-29T15:30:05;3.95;;;1.52;;
59846;SDS011;45728;48.788;2.302;2022-07-29T15:32:32;5.35;;;1.40;;
59846;SDS011;45728;48.788;2.302;2022-07-29T15:34:58;2.42;;;1.30;;
59846;SDS011;45728;48.788;2.302;2022-07-29T15:37:24;2.58;;;1.40;;